This is the latest recevied weather packets stored in our database for station/object DL8BNG-13. If no packets are shown the sender has not sent any weather packets the latest 10 day(s).
| Time | Temp. | Humidity | Pressure | Rain* | Wind** | Luminosity | Snow |
|---|---|---|---|---|---|---|---|
| 1788329703 | 12.78° C | 88% | - | 0 mm | - | - | - |
| 1788324303 | 10.56° C | 90% | - | 0 mm | - | - | - |
| 1788300903 | 13.33° C | 82% | - | 0 mm | - | - | - |
| 1788298202 | 14.44° C | 78% | - | 0.25 mm | - | - | - |
| 1788295503 | 15° C | 75% | - | 0.25 mm | - | - | - |
| 1788293703 | 15.56° C | 72% | - | 0.25 mm | - | - | - |
| 1788292802 | 16.11° C | 71% | - | 0.25 mm | - | - | - |
| 1788287402 | 18.89° C | 57% | - | 0.25 mm | - | - | - |
| 1788286502 | 20° C | 52% | - | 0.25 mm | - | - | - |
| 1788283802 | 21.67° C | 46% | - | 0.25 mm | - | - | - |
| 1788282903 | 22.22° C | 44% | - | 0.25 mm | - | - | - |
| 1788280202 | 22.78° C | 38% | - | 0.25 mm | - | - | - |
| 1788279302 | 22.78° C | 37% | - | 0.25 mm | - | - | - |
| 1788276602 | 22.78° C | 37% | - | 0.25 mm | - | - | - |
| 1788273003 | 22.78° C | 38% | - | 0.25 mm | - | - | - |
| 1788272102 | 22.78° C | 40% | - | 0.25 mm | - | - | - |
| 1788271202 | 22.78° C | 39% | - | 0.25 mm | - | - | - |
| 1788270303 | 22.22° C | 41% | - | 0.25 mm | - | - | - |
| 1788269403 | 22.22° C | 43% | - | 0.25 mm | - | - | - |
| 1788268502 | 22.78° C | 43% | - | 0.25 mm | - | - | - |
| 1788267603 | 22.78° C | 42% | - | 0.25 mm | - | - | - |
| 1788266702 | 22.78° C | 42% | - | 0.25 mm | - | - | - |
| 1788265802 | 22.22° C | 42% | - | 0.25 mm | - | - | - |
| 1788264902 | 22.22° C | 43% | - | 0.25 mm | - | - | - |
| 1788264002 | 22.22° C | 45% | - | 0.25 mm | - | - | - |
* Rain since midnight (hover to see other rain measurements)
** Current wind speed in m/s (hover to see current wind gust speed)